Time;durP1;ratioP1;P1;durP2;ratioP2;P2;SDS_P1;SDS_P2;PMS_P1;PMS_P2;Temp;Humidity;BMP_temperature;BMP_pressure;BME280_temperature;BME280_humidity;BME280_pressure;Samples;Min_cycle;Max_cycle;Signal;HPM_P1;HPM_P2
2023/10/16 00:02:11;;;;;;;3.10;2.27;;;11.10;61.00;;;;;;5049440;28;20674;-64
2023/10/16 00:04:43;;;;;;;5.00;2.40;;;11.00;60.80;;;;;;5049149;28;20993;-63
2023/10/16 00:07:14;;;;;;;3.87;2.20;;;11.00;60.20;;;;;;5048968;28;20488;-64
2023/10/16 00:09:41;;;;;;;3.43;2.03;;;10.80;60.20;;;;;;5049098;28;20459;-63
2023/10/16 00:12:08;;;;;;;2.87;1.77;;;10.80;60.50;;;;;;5051597;28;20844;-63
2023/10/16 00:14:37;;;;;;;2.30;2.10;;;10.70;60.50;;;;;;5061027;28;20485;-62
2023/10/16 00:17:08;;;;;;;2.30;2.10;;;10.70;60.80;;;;;;5063980;28;20432;-64
2023/10/16 00:19:37;;;;;;;2.70;2.07;;;10.70;60.80;;;;;;5072957;28;20569;-63
2023/10/16 00:22:10;;;;;;;3.30;2.50;;;10.60;61.00;;;;;;5079577;28;20489;-64
2023/10/16 00:24:37;;;;;;;2.90;2.30;;;10.60;61.30;;;;;;5080494;28;21076;-63
2023/10/16 00:27:05;;;;;;;2.97;2.33;;;10.60;61.00;;;;;;5052903;28;20563;-63
2023/10/16 00:29:35;;;;;;;3.53;2.70;;;10.60;61.00;;;;;;5048784;28;20499;-63
2023/10/16 00:32:07;;;;;;;2.70;2.20;;;10.60;61.30;;;;;;5049327;28;20662;-63
2023/10/16 00:34:34;;;;;;;3.27;2.17;;;10.60;61.30;;;;;;5049475;28;20464;-63
2023/10/16 00:37:02;;;;;;;2.30;2.10;;;10.60;61.00;;;;;;5053528;28;20535;-63
2023/10/16 00:39:29;;;;;;;2.33;2.03;;;10.60;61.00;;;;;;5062822;28;20458;-64
2023/10/16 00:41:57;;;;;;;2.90;2.00;;;10.60;60.90;;;;;;5056676;28;20452;-64
2023/10/16 00:44:24;;;;;;;2.50;2.23;;;10.60;60.80;;;;;;5065937;28;20451;-62
2023/10/16 00:46:53;;;;;;;3.97;2.47;;;10.60;61.70;;;;;;5064734;28;20519;-63
2023/10/16 00:49:23;;;;;;;4.83;2.07;;;10.60;60.80;;;;;;5068004;28;20797;-63
2023/10/16 00:51:51;;;;;;;3.23;2.33;;;10.50;60.80;;;;;;5053065;28;20621;-63
2023/10/16 00:54:28;;;;;;;2.13;1.93;;;10.50;60.60;;;;;;5060552;28;20459;-63
2023/10/16 00:56:57;;;;;;;4.80;2.10;;;10.50;60.60;;;;;;5048716;28;20453;-62
2023/10/16 00:59:24;;;;;;;3.37;2.00;;;10.40;60.70;;;;;;5048241;28;20814;-64
2023/10/16 01:02:04;;;;;;;4.40;2.50;;;10.40;60.70;;;;;;5048338;28;20491;-63
2023/10/16 01:04:33;;;;;;;3.77;2.20;;;10.40;60.80;;;;;;5048388;28;20937;-63
2023/10/16 01:07:00;;;;;;;5.67;2.43;;;10.30;60.70;;;;;;5048152;28;20492;-63
2023/10/16 01:09:33;;;;;;;2.43;2.20;;;10.30;60.80;;;;;;5048764;28;20502;-64
2023/10/16 01:12:01;;;;;;;3.63;2.23;;;10.30;60.80;;;;;;5046905;28;20564;-64
2023/10/16 01:14:29;;;;;;;6.10;2.07;;;10.30;60.80;;;;;;5064349;28;20443;-64
2023/10/16 01:16:56;;;;;;;2.57;2.30;;;10.30;60.70;;;;;;5068336;28;20923;-62
2023/10/16 01:19:23;;;;;;;2.80;2.20;;;10.30;60.60;;;;;;5059577;28;20483;-64
2023/10/16 01:21:53;;;;;;;2.43;1.83;;;10.30;60.70;;;;;;5012979;28;21051;-63
2023/10/16 01:24:21;;;;;;;2.63;2.30;;;10.20;60.60;;;;;;5052659;28;20498;-63
2023/10/16 01:26:49;;;;;;;3.03;2.07;;;10.20;60.70;;;;;;5056725;28;20471;-64
2023/10/16 01:29:16;;;;;;;3.17;2.43;;;10.20;60.60;;;;;;5072050;28;20454;-62
2023/10/16 01:31:47;;;;;;;2.83;2.13;;;10.20;60.60;;;;;;5069419;28;20481;-64
2023/10/16 01:34:14;;;;;;;2.50;2.00;;;10.20;60.50;;;;;;5059192;28;20983;-63
2023/10/16 01:36:45;;;;;;;5.13;2.47;;;10.10;61.30;;;;;;5055866;28;21016;-63
2023/10/16 01:39:47;;;;;;;2.63;2.23;;;10.10;60.70;;;;;;5051663;28;20457;-63
2023/10/16 01:42:02;;;;;;;3.57;2.10;;;10.00;60.90;;;;;;5053602;28;20864;-63
2023/10/16 01:44:29;;;;;;;2.90;2.23;;;10.00;61.00;;;;;;5058528;28;20460;-64
2023/10/16 01:46:56;;;;;;;3.07;2.30;;;10.00;61.20;;;;;;5055191;28;20480;-64
2023/10/16 01:49:24;;;;;;;3.20;2.30;;;10.00;61.20;;;;;;5057614;28;20457;-63
2023/10/16 01:51:51;;;;;;;2.87;2.13;;;10.00;61.10;;;;;;5063612;28;20452;-64
2023/10/16 01:54:22;;;;;;;3.53;2.27;;;10.00;61.10;;;;;;5053698;28;20461;-63
2023/10/16 01:56:49;;;;;;;3.27;2.30;;;9.90;63.00;;;;;;5064716;28;20816;-64
2023/10/16 01:59:21;;;;;;;2.03;1.83;;;9.90;62.60;;;;;;5060052;28;20459;-64
2023/10/16 02:01:47;;;;;;;2.50;2.07;;;9.90;62.50;;;;;;5052848;28;20488;-64
2023/10/16 02:04:19;;;;;;;2.40;1.80;;;9.90;62.50;;;;;;5051619;28;20441;-63
2023/10/16 02:06:48;;;;;;;2.43;2.07;;;9.90;62.20;;;;;;5055219;28;20573;-62
2023/10/16 02:09:22;;;;;;;4.77;2.30;;;9.80;62.10;;;;;;5067320;28;20460;-62
2023/10/16 02:11:49;;;;;;;4.87;2.17;;;9.80;62.20;;;;;;5051414;28;20458;-64
2023/10/16 02:14:17;;;;;;;5.97;2.97;;;9.80;62.30;;;;;;5051137;28;20539;-64
2023/10/16 02:16:47;;;;;;;4.07;2.03;;;9.80;62.30;;;;;;5053597;28;20451;-64
2023/10/16 02:19:16;;;;;;;2.57;2.33;;;9.80;62.40;;;;;;5070791;28;20564;-63
2023/10/16 02:21:43;;;;;;;3.40;2.33;;;9.70;62.40;;;;;;5057704;28;20480;-63
2023/10/16 02:24:11;;;;;;;2.77;2.30;;;9.70;62.50;;;;;;5051049;28;20478;-63
2023/10/16 02:26:53;;;;;;;2.43;2.23;;;9.70;62.70;;;;;;5059494;28;20499;-63
2023/10/16 02:29:21;;;;;;;3.03;2.30;;;9.60;62.70;;;;;;5050635;28;20474;-63
2023/10/16 02:31:50;;;;;;;2.50;2.20;;;9.60;63.40;;;;;;5053457;28;20443;-64
2023/10/16 02:34:22;;;;;;;2.53;2.20;;;9.50;62.40;;;;;;5069891;28;20455;-64
2023/10/16 02:36:49;;;;;;;3.40;2.00;;;9.50;62.50;;;;;;5060807;28;20456;-63
2023/10/16 02:39:35;;;;;;;2.10;1.90;;;9.50;62.50;;;;;;5050672;28;20448;-63
2023/10/16 02:42:05;;;;;;;3.37;2.20;;;9.50;62.30;;;;;;5054860;28;20535;-63
2023/10/16 02:44:38;;;;;;;4.07;2.63;;;9.40;62.40;;;;;;5068623;28;20853;-64
2023/10/16 02:47:07;;;;;;;3.37;2.53;;;9.40;62.30;;;;;;5053959;28;20491;-63
2023/10/16 02:49:35;;;;;;;4.37;2.60;;;9.40;62.40;;;;;;5069880;28;20546;-63
2023/10/16 02:52:04;;;;;;;2.67;2.20;;;9.30;62.40;;;;;;5033829;28;20458;-63
2023/10/16 02:54:31;;;;;;;2.67;2.20;;;9.30;62.40;;;;;;5050353;28;20542;-63
2023/10/16 02:57:00;;;;;;;3.13;2.23;;;9.30;62.40;;;;;;5063375;28;20567;-64
2023/10/16 02:59:27;;;;;;;2.87;2.23;;;9.30;62.50;;;;;;5070126;28;20455;-64
2023/10/16 03:01:56;;;;;;;3.13;2.43;;;9.30;62.40;;;;;;5069324;28;20448;-64
2023/10/16 03:04:27;;;;;;;3.37;2.23;;;9.30;62.40;;;;;;5068607;28;20819;-64
2023/10/16 03:06:55;;;;;;;2.27;2.07;;;9.30;62.40;;;;;;5054510;28;20490;-64
2023/10/16 03:09:28;;;;;;;2.87;2.20;;;9.30;62.40;;;;;;5064741;28;20547;-64
2023/10/16 03:12:04;;;;;;;2.83;2.40;;;9.30;62.70;;;;;;5055433;28;20460;-63
2023/10/16 03:14:44;;;;;;;3.70;2.40;;;9.30;62.60;;;;;;5055248;28;20735;-63
2023/10/16 03:17:19;;;;;;;2.43;2.23;;;9.30;62.70;;;;;;5048953;28;20444;-64
2023/10/16 03:19:48;;;;;;;2.60;2.40;;;9.30;62.40;;;;;;5049348;28;21005;-63
2023/10/16 03:22:16;;;;;;;4.70;2.70;;;9.30;62.60;;;;;;5023722;28;20506;-64
2023/10/16 03:24:45;;;;;;;3.27;2.40;;;9.30;62.40;;;;;;5069128;28;20466;-63
2023/10/16 03:27:23;;;;;;;3.70;2.47;;;9.30;62.50;;;;;;5068806;28;21030;-63
2023/10/16 03:29:51;;;;;;;2.90;2.27;;;9.30;62.40;;;;;;5068899;28;20513;-62
2023/10/16 03:32:19;;;;;;;2.80;2.20;;;9.20;62.60;;;;;;5058732;28;20460;-64
2023/10/16 03:34:47;;;;;;;3.63;2.10;;;9.30;62.70;;;;;;5049328;28;21056;-63
2023/10/16 03:37:15;;;;;;;2.63;2.13;;;9.20;62.70;;;;;;5049213;28;20444;-63
2023/10/16 03:39:44;;;;;;;3.27;2.23;;;9.10;62.50;;;;;;5013957;28;20531;-63
2023/10/16 03:42:11;;;;;;;2.83;2.40;;;9.10;62.30;;;;;;5060056;28;20464;-64
2023/10/16 03:44:41;;;;;;;2.87;2.23;;;9.10;62.20;;;;;;5068816;28;20915;-64
2023/10/16 03:47:09;;;;;;;2.23;2.03;;;9.10;62.20;;;;;;5068840;28;20570;-62
2023/10/16 03:49:37;;;;;;;2.70;2.20;;;9.00;62.10;;;;;;5069583;28;20482;-63
2023/10/16 03:52:07;;;;;;;2.53;2.30;;;9.00;62.10;;;;;;5063912;28;20864;-64
2023/10/16 03:54:36;;;;;;;2.80;2.13;;;9.00;62.10;;;;;;5069202;28;20455;-64
2023/10/16 03:57:09;;;;;;;3.83;2.13;;;9.00;62.20;;;;;;5067458;28;20881;-63
2023/10/16 03:59:38;;;;;;;2.73;2.27;;;8.90;62.30;;;;;;5067723;28;20490;-62
2023/10/16 04:02:06;;;;;;;2.63;2.13;;;8.90;62.40;;;;;;5049851;28;20464;-64
2023/10/16 04:04:33;;;;;;;3.43;2.50;;;8.90;62.60;;;;;;5048675;28;20460;-64
2023/10/16 04:07:01;;;;;;;1.90;1.80;;;8.90;62.60;;;;;;5069504;28;20485;-63
2023/10/16 04:09:33;;;;;;;3.53;2.10;;;8.90;62.60;;;;;;5067681;28;20717;-63
2023/10/16 04:12:04;;;;;;;2.30;2.10;;;8.80;62.50;;;;;;5067389;28;20478;-63
2023/10/16 04:17:26;;;;;;;3.20;2.30;;;8.80;62.80;;;;;;5107114;27;20640;-62
2023/10/16 04:19:53;;;;;;;2.70;2.37;;;8.80;63.80;;;;;;5105003;28;20456;-62
2023/10/16 04:22:23;;;;;;;2.77;2.03;;;8.70;62.90;;;;;;5102734;28;20456;-62
2023/10/16 04:24:54;;;;;;;2.53;2.23;;;8.70;63.00;;;;;;5106680;28;20458;-64
2023/10/16 04:27:32;;;;;;;3.00;2.10;;;8.70;63.00;;;;;;5106784;28;20568;-63
2023/10/16 04:33:02;;;;;;;3.90;2.17;;;8.60;62.90;;;;;;5103322;28;20538;-62
2023/10/16 04:35:51;;;;;;;3.50;2.27;;;8.60;63.20;;;;;;5106926;28;20508;-63
2023/10/16 04:38:31;;;;;;;5.70;2.10;;;8.60;63.30;;;;;;5101820;28;20442;-63
2023/10/16 04:43:51;;;;;;;2.87;2.23;;;8.60;63.90;;;;;;5102156;28;20441;-63
2023/10/16 04:46:20;;;;;;;2.63;2.23;;;8.70;63.90;;;;;;5088211;28;20451;-63
2023/10/16 04:48:49;;;;;;;3.40;2.60;;;8.60;64.00;;;;;;5097133;28;20456;-62
2023/10/16 04:51:17;;;;;;;2.20;2.00;;;8.60;63.90;;;;;;5090810;28;20607;-63
2023/10/16 04:54:13;;;;;;;3.97;2.50;;;8.60;64.00;;;;;;5089136;28;20458;-64
2023/10/16 04:59:58;;;;;;;2.80;2.20;;;8.60;64.30;;;;;;5100861;28;20851;-62
2023/10/16 05:02:34;;;;;;;2.30;2.10;;;8.60;64.10;;;;;;5107394;28;20470;-64
2023/10/16 05:08:30;;;;;;;2.67;2.30;;;8.60;64.10;;;;;;5106573;28;20917;-64
2023/10/16 05:11:23;;;;;;;3.57;2.53;;;8.60;65.10;;;;;;5086864;28;20439;-62
2023/10/16 05:13:43;;;;;;;2.73;2.30;;;8.60;64.40;;;;;;5065903;28;20441;-64
2023/10/16 05:16:31;;;;;;;3.00;2.50;;;8.60;64.40;;;;;;5056636;28;20482;-63
2023/10/16 06:14:12;;;;;;;3.13;2.70;;;8.50;65.30;;;;;;5069153;28;20547;-65
2023/10/16 06:16:39;;;;;;;2.53;2.27;;;8.50;65.40;;;;;;5071846;28;20491;-64
2023/10/16 06:19:14;;;;;;;3.70;2.63;;;8.50;65.60;;;;;;5072823;28;20785;-63
2023/10/16 06:21:45;;;;;;;2.90;2.60;;;8.50;65.80;;;;;;5074892;28;20534;-64
2023/10/16 06:24:25;;;;;;;4.53;2.70;;;8.60;66.00;;;;;;5074546;28;20458;-64
2023/10/16 06:26:54;;;;;;;2.97;2.60;;;8.60;65.90;;;;;;5074397;28;20462;-64
2023/10/16 06:29:24;;;;;;;3.80;2.40;;;8.60;65.90;;;;;;5089210;28;20443;-64
2023/10/16 06:31:53;;;;;;;4.43;3.50;;;8.60;65.80;;;;;;5075763;28;20561;-64
2023/10/16 06:34:21;;;;;;;5.23;3.20;;;8.70;66.00;;;;;;5082372;28;20895;-63
2023/10/16 06:36:48;;;;;;;3.73;3.20;;;8.70;66.00;;;;;;5078322;28;20977;-64
2023/10/16 06:39:28;;;;;;;4.57;3.37;;;8.70;66.00;;;;;;5077934;28;20450;-63
2023/10/16 06:41:56;;;;;;;7.07;3.53;;;8.70;66.20;;;;;;5075100;28;20451;-64
2023/10/16 06:44:29;;;;;;;4.00;3.53;;;8.80;66.60;;;;;;5072501;28;21277;-64
2023/10/16 06:46:59;;;;;;;4.10;3.57;;;8.80;66.60;;;;;;5079551;28;20448;-64
2023/10/16 06:49:28;;;;;;;6.77;3.60;;;8.80;66.80;;;;;;5081512;28;20446;-64
2023/10/16 06:51:57;;;;;;;5.00;3.83;;;8.90;66.90;;;;;;5091450;28;20538;-64
2023/10/16 06:54:26;;;;;;;5.37;3.90;;;8.90;66.90;;;;;;5091489;28;20453;-63
2023/10/16 06:56:53;;;;;;;4.53;3.43;;;8.90;66.90;;;;;;5089217;28;20485;-64
2023/10/16 06:59:21;;;;;;;5.37;3.73;;;9.00;67.00;;;;;;5075949;28;20981;-64
2023/10/16 07:01:50;;;;;;;4.83;3.90;;;9.00;66.90;;;;;;5050103;28;20933;-65
2023/10/16 07:04:19;;;;;;;3.97;3.57;;;9.10;67.80;;;;;;5091178;28;20520;-64
2023/10/16 07:06:47;;;;;;;4.20;3.67;;;9.10;67.10;;;;;;5089419;28;20486;-64
2023/10/16 07:09:13;;;;;;;4.53;3.73;;;9.20;67.60;;;;;;5091125;28;20508;-64
2023/10/16 07:11:42;;;;;;;3.73;3.43;;;9.30;67.60;;;;;;5083072;28;20462;-64
2023/10/16 07:14:12;;;;;;;3.67;3.37;;;9.30;67.70;;;;;;5071143;28;20785;-64
2023/10/16 07:16:41;;;;;;;4.10;3.73;;;9.40;67.70;;;;;;5070466;28;20495;-64
2023/10/16 07:19:08;;;;;;;4.13;3.50;;;9.40;67.70;;;;;;5070691;28;20449;-64
2023/10/16 07:21:35;;;;;;;4.90;3.33;;;9.50;67.70;;;;;;5075419;28;20553;-64
2023/10/16 07:24:03;;;;;;;3.77;3.40;;;9.50;67.90;;;;;;5091085;28;20452;-64
2023/10/16 07:26:30;;;;;;;3.97;3.33;;;9.60;68.00;;;;;;5090825;28;20925;-65
2023/10/16 07:28:58;;;;;;;4.53;3.73;;;9.70;68.00;;;;;;5091032;28;20445;-65
2023/10/16 07:31:26;;;;;;;4.97;3.30;;;9.80;68.30;;;;;;5089204;28;20458;-64
2023/10/16 07:33:59;;;;;;;3.67;3.27;;;9.90;68.60;;;;;;5075080;28;20459;-64
2023/10/16 07:36:27;;;;;;;3.80;3.40;;;10.10;67.70;;;;;;5070011;28;20479;-64
2023/10/16 07:38:54;;;;;;;3.50;3.17;;;10.20;67.50;;;;;;5070614;28;20816;-64
2023/10/16 07:41:23;;;;;;;5.63;3.77;;;10.30;67.70;;;;;;5071644;28;20478;-65
2023/10/16 07:43:56;;;;;;;6.10;3.67;;;10.50;67.70;;;;;;5072388;28;20476;-64
2023/10/16 07:46:30;;;;;;;4.77;3.23;;;10.60;67.60;;;;;;5090750;28;20460;-64
2023/10/16 07:49:09;;;;;;;4.23;3.60;;;10.70;67.20;;;;;;5089807;28;20443;-64
2023/10/16 07:51:37;;;;;;;4.60;3.80;;;10.90;67.30;;;;;;5050079;28;20456;-64
2023/10/16 07:54:07;;;;;;;4.37;3.60;;;11.00;67.00;;;;;;5053757;28;20535;-65
2023/10/16 07:56:35;;;;;;;4.60;3.53;;;11.20;66.70;;;;;;5090399;28;20482;-64
2023/10/16 07:59:09;;;;;;;4.37;3.90;;;11.30;67.30;;;;;;5071271;28;21022;-64
2023/10/16 08:01:41;;;;;;;4.03;3.63;;;11.40;66.10;;;;;;5073895;28;20482;-65
2023/10/16 08:04:27;;;;;;;6.63;4.07;;;11.60;66.00;;;;;;5086884;28;20493;-64
2023/10/16 08:06:57;;;;;;;3.83;3.37;;;11.70;66.30;;;;;;5089784;28;20927;-65
2023/10/16 08:12:18;;;;;;;4.30;3.70;;;11.90;66.10;;;;;;5088765;28;20445;-65
2023/10/16 08:14:45;;;;;;;4.87;4.03;;;11.90;65.90;;;;;;5085065;28;21219;-62
2023/10/16 08:17:15;;;;;;;4.97;3.77;;;12.00;65.90;;;;;;5072091;28;20494;-65
2023/10/16 08:19:44;;;;;;;4.00;3.60;;;12.20;65.90;;;;;;5085075;28;21081;-65
2023/10/16 08:22:13;;;;;;;5.13;3.97;;;12.30;65.90;;;;;;5078308;28;20902;-64
2023/10/16 08:24:44;;;;;;;5.77;3.90;;;12.40;65.40;;;;;;5090119;28;20448;-64
2023/10/16 08:27:19;;;;;;;7.07;4.10;;;12.50;65.20;;;;;;5087820;28;20450;-64
2023/10/16 08:29:54;;;;;;;5.63;3.90;;;12.60;64.80;;;;;;5088282;28;20450;-63
2023/10/16 08:32:53;;;;;;;4.67;3.97;;;12.80;64.60;;;;;;5074066;28;20466;-64
2023/10/16 08:35:21;;;;;;;4.70;4.07;;;12.90;64.50;;;;;;5069348;28;20838;-65
2023/10/16 08:37:56;;;;;;;4.47;4.03;;;13.00;64.70;;;;;;5080587;28;20483;-65
2023/10/16 08:40:32;;;;;;;5.37;3.97;;;13.00;64.60;;;;;;5069432;28;20451;-65
2023/10/16 08:43:01;;;;;;;5.47;4.03;;;13.10;64.40;;;;;;5069882;28;20451;-65
2023/10/16 08:45:29;;;;;;;4.27;3.87;;;13.20;64.40;;;;;;5070184;28;20927;-65
2023/10/16 08:47:59;;;;;;;4.70;4.30;;;13.30;64.60;;;;;;5051257;28;21050;-65
2023/10/16 08:50:40;;;;;;;7.27;3.93;;;13.50;64.50;;;;;;5069563;28;20519;-65
2023/10/16 08:53:19;;;;;;;6.17;4.30;;;13.50;64.40;;;;;;5073307;28;20546;-65
2023/10/16 08:55:56;;;;;;;4.50;3.53;;;13.60;64.20;;;;;;5080974;28;20447;-65
2023/10/16 08:58:23;;;;;;;4.40;4.00;;;13.80;64.00;;;;;;5069305;28;20582;-65
2023/10/16 09:00:52;;;;;;;4.20;3.80;;;13.90;64.30;;;;;;5080463;28;20476;-65
2023/10/16 09:03:21;;;;;;;3.80;3.40;;;14.00;64.00;;;;;;5078622;28;20458;-64
2023/10/16 09:05:51;;;;;;;4.83;4.00;;;14.10;63.50;;;;;;5080732;28;20481;-65
2023/10/16 09:08:18;;;;;;;5.23;4.10;;;14.30;63.10;;;;;;5073341;28;20468;-65
2023/10/16 09:10:45;;;;;;;4.60;3.50;;;14.40;63.00;;;;;;5073627;28;20955;-65
2023/10/16 09:13:16;;;;;;;3.63;3.33;;;14.50;62.80;;;;;;5073571;28;20443;-65
2023/10/16 09:15:46;;;;;;;4.57;3.63;;;14.60;62.50;;;;;;5084173;28;20832;-65
2023/10/16 09:18:14;;;;;;;4.30;3.40;;;14.70;62.20;;;;;;5081487;28;20799;-65
2023/10/16 09:20:42;;;;;;;3.87;3.10;;;14.90;61.80;;;;;;5072881;28;20967;-65
2023/10/16 09:23:13;;;;;;;5.33;3.67;;;15.00;61.30;;;;;;5073464;28;20914;-65
2023/10/16 09:25:44;;;;;;;4.03;3.10;;;15.10;61.40;;;;;;5073106;28;20443;-65
2023/10/16 09:28:16;;;;;;;3.80;3.43;;;15.20;61.10;;;;;;5083816;28;20446;-65
2023/10/16 09:30:45;;;;;;;6.10;3.50;;;15.30;61.00;;;;;;5081258;28;20447;-65
2023/10/16 09:33:12;;;;;;;4.17;3.43;;;15.50;60.50;;;;;;5072457;28;20463;-64
2023/10/16 09:35:43;;;;;;;3.53;3.23;;;15.60;60.20;;;;;;5073375;28;20455;-65
2023/10/16 09:38:17;;;;;;;2.90;2.60;;;15.80;59.80;;;;;;5073053;28;20479;-65
2023/10/16 09:40:58;;;;;;;5.27;3.07;;;15.90;59.20;;;;;;5073257;28;20509;-65
2023/10/16 09:43:25;;;;;;;3.40;2.80;;;16.10;59.00;;;;;;5072974;28;20497;-65
2023/10/16 09:46:33;;;;;;;2.90;2.60;;;16.30;58.60;;;;;;5073110;28;20510;-65
2023/10/16 09:48:47;;;;;;;4.80;2.73;;;16.40;58.40;;;;;;5072734;28;20816;-65
2023/10/16 09:51:14;;;;;;;3.57;2.57;;;16.60;58.00;;;;;;5074037;28;20828;-65
2023/10/16 09:53:43;;;;;;;3.10;2.70;;;16.80;58.40;;;;;;5072626;28;20879;-65
2023/10/16 09:56:12;;;;;;;3.30;2.40;;;16.90;57.50;;;;;;5073091;28;20444;-65
2023/10/16 09:58:44;;;;;;;3.73;2.90;;;17.00;57.00;;;;;;5072236;28;21055;-65
2023/10/16 10:01:21;;;;;;;2.63;2.37;;;17.20;56.00;;;;;;5074093;28;20466;-65
2023/10/16 10:03:49;;;;;;;3.00;2.00;;;17.30;55.20;;;;;;5088830;28;20738;-65
2023/10/16 10:06:21;;;;;;;3.53;2.30;;;17.40;54.90;;;;;;5088710;28;20476;-65
2023/10/16 10:09:21;;;;;;;4.30;2.77;;;17.60;54.80;;;;;;5072729;28;20451;-64
2023/10/16 10:11:57;;;;;;;2.90;2.27;;;17.70;54.30;;;;;;5073695;28;20479;-64
2023/10/16 10:14:32;;;;;;;2.30;2.03;;;17.90;53.70;;;;;;5072523;28;20435;-64
2023/10/16 10:17:01;;;;;;;4.63;2.40;;;18.00;53.60;;;;;;5081839;28;20489;-64
2023/10/16 10:19:32;;;;;;;2.17;1.97;;;18.20;53.20;;;;;;5089819;28;20545;-65
2023/10/16 10:22:05;;;;;;;3.40;2.17;;;18.30;53.00;;;;;;5077378;28;20443;-65
2023/10/16 10:24:37;;;;;;;4.83;2.47;;;18.50;52.80;;;;;;5072671;28;20467;-65
2023/10/16 10:27:05;;;;;;;2.87;2.07;;;18.60;52.20;;;;;;5092899;28;20536;-65
2023/10/16 10:29:33;;;;;;;4.50;3.03;;;18.60;52.20;;;;;;5071470;28;20212;-65
2023/10/16 10:32:07;;;;;;;2.40;2.10;;;18.80;52.20;;;;;;5092331;28;20303;-65
2023/10/16 10:34:34;;;;;;;3.57;2.17;;;18.90;51.60;;;;;;5091945;28;20236;-66
2023/10/16 10:37:07;;;;;;;3.90;2.50;;;19.00;51.70;;;;;;5072808;28;20316;-65
2023/10/16 10:39:50;;;;;;;3.27;2.30;;;19.20;51.00;;;;;;5071580;28;20714;-65
2023/10/16 10:42:26;;;;;;;2.80;1.90;;;19.30;50.80;;;;;;5071753;28;20254;-65
2023/10/16 10:45:17;;;;;;;3.80;1.77;;;19.50;50.80;;;;;;5072762;28;20224;-65
2023/10/16 10:47:44;;;;;;;2.90;2.30;;;19.70;50.40;;;;;;5072095;28;20672;-65
2023/10/16 10:50:14;;;;;;;3.23;1.70;;;19.80;49.80;;;;;;5071591;28;20251;-64
2023/10/16 10:52:43;;;;;;;3.47;2.03;;;19.90;49.10;;;;;;5072791;28;20205;-65
2023/10/16 10:55:22;;;;;;;2.87;1.80;;;20.00;49.10;;;;;;5082417;28;20193;-65
2023/10/16 10:57:55;;;;;;;2.57;2.10;;;20.10;48.20;;;;;;5071976;28;20231;-64
2023/10/16 11:00:43;;;;;;;4.80;2.27;;;20.20;48.50;;;;;;5071218;28;20338;-64
2023/10/16 11:03:22;;;;;;;2.90;1.87;;;20.20;48.80;;;;;;5075539;28;20224;-64
2023/10/16 11:05:50;;;;;;;3.17;1.77;;;20.30;48.00;;;;;;5072024;28;20336;-65
2023/10/16 11:08:25;;;;;;;2.30;1.67;;;20.40;47.50;;;;;;5070687;28;20677;-64
2023/10/16 11:10:56;;;;;;;2.63;1.73;;;20.50;46.90;;;;;;5083237;28;20729;-65
2023/10/16 11:13:26;;;;;;;2.43;1.47;;;20.60;46.30;;;;;;5084147;28;20662;-65
2023/10/16 11:15:56;;;;;;;1.90;1.60;;;20.70;45.90;;;;;;5084460;28;20215;-65
2023/10/16 11:18:26;;;;;;;2.73;1.43;;;20.80;45.50;;;;;;5064485;28;20251;-65
2023/10/16 11:20:54;;;;;;;1.30;1.20;;;20.80;45.00;;;;;;5042768;28;20195;-63
2023/10/16 11:23:22;;;;;;;2.20;1.93;;;20.90;44.90;;;;;;5052318;28;20295;-64
2023/10/16 11:25:51;;;;;;;2.20;1.47;;;21.00;44.70;;;;;;5049075;28;20217;-65
2023/10/16 11:28:22;;;;;;;2.00;1.30;;;21.10;44.10;;;;;;5052109;28;20216;-64
2023/10/16 11:30:53;;;;;;;1.20;1.10;;;21.20;44.00;;;;;;5066058;28;20236;-65
2023/10/16 11:33:34;;;;;;;3.27;1.70;;;21.40;43.60;;;;;;5090611;28;20212;-65
2023/10/16 11:36:03;;;;;;;1.90;1.60;;;21.50;42.10;;;;;;5075656;28;20496;-65
2023/10/16 11:38:31;;;;;;;3.17;1.50;;;21.50;42.20;;;;;;5086813;28;20231;-65
2023/10/16 11:41:04;;;;;;;2.30;1.50;;;21.70;42.90;;;;;;5070311;28;20232;-64
2023/10/16 11:43:37;;;;;;;1.97;1.30;;;21.80;42.00;;;;;;5070653;28;20209;-64
2023/10/16 11:46:27;;;;;;;2.13;1.23;;;21.80;41.90;;;;;;5072112;28;20583;-64
2023/10/16 11:48:56;;;;;;;1.37;1.20;;;21.90;42.00;;;;;;5075375;28;20227;-63
2023/10/16 11:51:25;;;;;;;1.83;1.60;;;22.10;42.20;;;;;;5090962;28;20257;-65
2023/10/16 11:53:58;;;;;;;2.10;1.50;;;22.30;41.60;;;;;;5090993;28;20618;-64
2023/10/16 11:56:26;;;;;;;1.93;1.70;;;22.50;41.00;;;;;;5080020;28;20271;-65
2023/10/16 11:58:56;;;;;;;1.53;1.40;;;22.70;41.50;;;;;;5083991;28;20232;-65
2023/10/16 12:01:26;;;;;;;2.43;1.47;;;22.80;40.80;;;;;;5088807;28;20224;-64
2023/10/16 12:03:53;;;;;;;1.63;1.47;;;22.90;40.50;;;;;;5091185;28;20300;-63
2023/10/16 12:06:20;;;;;;;1.97;1.20;;;23.00;40.60;;;;;;5090916;28;20232;-64
2023/10/16 12:08:47;;;;;;;2.07;1.53;;;23.10;40.70;;;;;;5089211;28;20242;-64
2023/10/16 12:11:15;;;;;;;2.50;1.50;;;23.30;40.10;;;;;;5090517;28;20610;-65
2023/10/16 12:13:42;;;;;;;2.77;1.30;;;23.40;40.10;;;;;;5090786;28;20250;-64
2023/10/16 12:16:10;;;;;;;1.47;1.37;;;23.50;39.20;;;;;;5090969;28;20213;-64
2023/10/16 12:18:37;;;;;;;1.30;1.20;;;23.70;39.50;;;;;;5089322;28;20702;-65
2023/10/16 12:21:08;;;;;;;1.33;1.23;;;23.90;38.90;;;;;;5082687;28;20193;-64
2023/10/16 12:23:37;;;;;;;1.53;1.20;;;24.00;38.60;;;;;;5070904;28;20263;-65
2023/10/16 12:26:04;;;;;;;1.33;1.23;;;24.10;38.10;;;;;;5073642;28;20233;-65
2023/10/16 12:28:32;;;;;;;1.83;1.30;;;24.10;37.20;;;;;;5070010;28;20210;-63
2023/10/16 12:31:02;;;;;;;1.17;1.03;;;24.20;37.10;;;;;;5070151;28;20682;-65
2023/10/16 12:33:31;;;;;;;1.47;1.17;;;24.40;37.30;;;;;;5069966;28;20673;-64
2023/10/16 12:36:01;;;;;;;1.87;1.30;;;24.50;36.40;;;;;;5070029;28;20201;-65
2023/10/16 12:38:28;;;;;;;1.50;1.10;;;24.80;36.40;;;;;;5085766;28;20663;-64
2023/10/16 12:40:58;;;;;;;1.30;1.20;;;24.90;36.40;;;;;;5094438;28;20208;-65
2023/10/16 12:43:27;;;;;;;1.47;1.27;;;25.10;36.30;;;;;;5094447;28;20259;-63
2023/10/16 12:45:56;;;;;;;1.80;1.20;;;25.30;35.60;;;;;;5080301;28;20704;-65
2023/10/16 12:48:24;;;;;;;1.93;1.10;;;25.60;35.80;;;;;;5081771;28;20198;-65
2023/10/16 12:50:53;;;;;;;1.63;1.17;;;25.80;35.00;;;;;;5075022;28;20193;-65
2023/10/16 12:53:20;;;;;;;2.17;1.20;;;26.10;34.40;;;;;;5072312;28;20205;-65
2023/10/16 12:55:51;;;;;;;1.27;1.17;;;26.30;34.10;;;;;;5073770;28;20206;-64
2023/10/16 12:58:19;;;;;;;1.23;1.13;;;26.60;33.90;;;;;;5074115;28;20484;-65
2023/10/16 13:00:50;;;;;;;0.90;0.87;;;27.00;33.50;;;;;;5078926;28;20194;-64
2023/10/16 13:03:19;;;;;;;1.17;1.00;;;27.30;32.60;;;;;;5077297;28;20597;-65
2023/10/16 13:05:47;;;;;;;1.73;1.00;;;27.60;32.50;;;;;;5073737;28;20206;-66
2023/10/16 13:08:17;;;;;;;1.53;0.93;;;28.00;31.90;;;;;;5038623;28;20573;-65
2023/10/16 13:10:48;;;;;;;0.77;0.63;;;28.50;31.10;;;;;;5073609;28;20276;-64
2023/10/16 13:13:19;;;;;;;1.40;0.90;;;29.10;30.30;;;;;;5087696;28;20253;-66
2023/10/16 13:15:54;;;;;;;1.30;1.20;;;29.90;30.50;;;;;;5093964;28;20212;-64
2023/10/16 13:18:31;;;;;;;1.60;1.20;;;31.30;29.30;;;;;;5093008;28;20323;-65
2023/10/16 13:21:06;;;;;;;1.67;1.30;;;33.20;28.10;;;;;;5059772;28;20286;-66
2023/10/16 13:23:36;;;;;;;1.17;1.07;;;35.10;26.70;;;;;;5072853;28;20234;-66
2023/10/16 13:26:07;;;;;;;1.40;1.30;;;37.10;25.40;;;;;;5073618;28;20267;-66
2023/10/16 13:28:40;;;;;;;1.97;1.20;;;38.60;24.30;;;;;;5073642;28;20207;-67
2023/10/16 13:31:08;;;;;;;1.97;1.30;;;39.80;23.60;;;;;;5073380;28;20225;-66
2023/10/16 13:33:40;;;;;;;1.50;1.40;;;41.00;22.90;;;;;;5074049;28;20225;-66
2023/10/16 13:36:11;;;;;;;1.50;1.40;;;42.10;22.30;;;;;;5039071;28;20226;-68
2023/10/16 13:38:40;;;;;;;2.23;1.50;;;43.10;21.50;;;;;;5073166;28;20256;-67
2023/10/16 13:41:18;;;;;;;2.67;1.73;;;44.00;20.90;;;;;;5072974;28;20726;-67
2023/10/16 13:43:46;;;;;;;1.87;1.50;;;44.70;20.40;;;;;;5073875;28;20228;-68
2023/10/16 13:46:13;;;;;;;2.10;1.50;;;45.10;20.20;;;;;;5075859;28;20196;-68
2023/10/16 13:48:45;;;;;;;1.90;1.37;;;45.70;20.00;;;;;;5091262;28;20216;-68
2023/10/16 13:51:17;;;;;;;2.10;1.90;;;46.20;19.50;;;;;;5093280;28;20207;-67
2023/10/16 13:53:47;;;;;;;2.20;2.00;;;46.50;19.20;;;;;;5090988;28;20298;-67
2023/10/16 13:56:16;;;;;;;1.97;1.77;;;46.70;19.10;;;;;;5093270;28;20224;-68
2023/10/16 13:58:45;;;;;;;2.13;1.93;;;47.10;18.90;;;;;;5072564;28;20236;-67
2023/10/16 14:01:14;;;;;;;2.67;1.80;;;47.40;18.80;;;;;;5075315;28;20577;-68
2023/10/16 14:03:42;;;;;;;1.47;1.37;;;47.60;18.40;;;;;;5072489;28;20225;-67
2023/10/16 14:09:10;;;;;;;1.63;1.42;;;47.90;18.00;;;;;;5108747;27;20631;-67
2023/10/16 14:11:47;;;;;;;2.33;1.60;;;47.90;17.90;;;;;;5107817;28;20210;-68
2023/10/16 14:14:18;;;;;;;1.75;1.65;;;48.00;17.90;;;;;;5107863;28;20211;-67
2023/10/16 14:16:49;;;;;;;1.70;1.40;;;47.90;17.80;;;;;;5108074;28;20234;-67
2023/10/16 14:19:22;;;;;;;1.67;1.55;;;47.70;17.70;;;;;;5069768;28;20268;-68
2023/10/16 14:21:51;;;;;;;1.70;1.60;;;47.50;17.80;;;;;;5108277;28;20199;-68
2023/10/16 14:24:22;;;;;;;1.52;1.42;;;47.30;17.80;;;;;;5108204;28;20298;-68
2023/10/16 14:26:49;;;;;;;1.40;1.30;;;46.90;17.70;;;;;;5108087;28;20207;-68